FW0446 Drafi GR current weather conditions

sailwx.info

Wind from 100 at 8 knots gusting 11

Air temperature 27.2° C
Dewpoint 16.8° C

Last reported at 2020-Aug-06 06:06 UTC.
Time now 2020-Aug-06 07:09 UTC

Location: N 38°02' E 023°54'.
View on Google Maps.

See reports from other nearby stations

  
Tides and Currents Weather Stations Pressure Air Temp Water Temp Dewpoint Dewpoint Depression Visibility Wind Speed Wind Dir Waves Ship Positions
date/time (UTC)wind fromknots sea level pressurealtimeterstation pressurevisibilityair tempwater tempwave heightnotes
2020-Aug-06 06:06 100 8 gusting 11 27.2
2020-Aug-06 06:01 107 6 gusting 11 27.8
2020-Aug-06 05:56 101 7 gusting 10 27.8
2020-Aug-06 05:51 050 6 gusting 8 27.8
2020-Aug-06 05:46 075 8 gusting 11 27.2
2020-Aug-06 05:41 090 6 gusting 8 27.8
2020-Aug-06 05:36 303 6 gusting 10 27.8
2020-Aug-06 05:31 082 4 gusting 8 27.8
2020-Aug-06 05:26 140 6 gusting 8 27.8
2020-Aug-06 05:21 075 4 gusting 8 27.8
2020-Aug-06 05:16 079 4 gusting 8 27.8
2020-Aug-06 05:11 035 5 gusting 8 27.2
2020-Aug-06 05:06 099 6 gusting 13 26.7
2020-Aug-06 05:01 060 4 gusting 6 26.7
2020-Aug-06 04:56 158 6 gusting 11 26.1
2020-Aug-06 04:51 337 7 gusting 12 26.1
2020-Aug-06 04:46 088 6 gusting 12 25.6
2020-Aug-06 04:41 102 7 gusting 11 25.6
2020-Aug-06 04:36 115 7 gusting 13 25.6
2020-Aug-06 04:31 048 9 gusting 13 25.6
2020-Aug-06 04:26 095 6 gusting 12 25.6
2020-Aug-06 04:21 078 6 gusting 12 25.6
2020-Aug-06 04:16 047 5 gusting 7 25.0
2020-Aug-06 04:11 090 4 gusting 6 25.0
2020-Aug-06 04:06 090 6 gusting 7 25.0
2020-Aug-06 04:01 078 6 gusting 7 24.4
2020-Aug-06 03:56 134 6 gusting 8 24.4
2020-Aug-06 03:51 075 6 gusting 7 24.4
2020-Aug-06 03:46 103 6 gusting 10 24.4
2020-Aug-06 03:41 030 6 gusting 13 24.4
2020-Aug-06 03:36 109 5 gusting 13 24.4
2020-Aug-06 03:31 061 5 gusting 6 24.4
2020-Aug-06 03:26 113 6 gusting 8 24.4
2020-Aug-06 03:21 183 6 gusting 7 24.4
2020-Aug-06 03:16 197 6 gusting 10 24.4
2020-Aug-06 03:11 075 5 gusting 10 24.4
2020-Aug-06 03:06 096 6 gusting 8 24.4
2020-Aug-06 03:01 084 6 gusting 10 24.4
2020-Aug-06 02:56 099 5 gusting 10 24.4
2020-Aug-06 02:51 081 5 gusting 12 24.4
2020-Aug-06 02:46 090 8 gusting 11 24.4
2020-Aug-06 02:41 123 6 gusting 10 24.4
2020-Aug-06 02:36 084 6 gusting 8 24.4
2020-Aug-06 02:31 102 5 gusting 7 24.4
2020-Aug-06 02:26 109 6 gusting 7 24.4
2020-Aug-06 02:21 034 3 gusting 5 24.4
2020-Aug-06 02:16 151 3 gusting 5 24.4
2020-Aug-06 02:11 105 2 gusting 5 24.4
2020-Aug-06 02:06 251 2 gusting 6 24.4
2020-Aug-06 02:01 186 1 gusting 4 24.4
2020-Aug-06 01:56 107 3 gusting 6 24.4
2020-Aug-06 01:51 106 2 gusting 5 24.4
2020-Aug-06 01:46 052 4 gusting 6 24.4
2020-Aug-06 01:41 034 4 gusting 6 24.4
2020-Aug-06 01:36 112 4 gusting 6 24.4
2020-Aug-06 01:31 036 4 gusting 8 24.4
2020-Aug-06 01:26 115 6 gusting 11 24.4
2020-Aug-06 01:21 098 4 gusting 8 24.4
2020-Aug-06 01:16 061 6 gusting 11 24.4
2020-Aug-06 01:11 110 10 gusting 12 24.4
2020-Aug-06 01:06 112 6 gusting 7 24.4
2020-Aug-06 01:01 103 5 gusting 8 23.9
2020-Aug-06 00:56 073 5 gusting 8 23.9
2020-Aug-06 00:51 051 4 gusting 6 23.9
2020-Aug-06 00:46 075 2 gusting 5 23.9
2020-Aug-06 00:41 271 1 gusting 2 23.9
2020-Aug-06 00:36 118 2 gusting 5 24.4
2020-Aug-06 00:31 271 4 gusting 6 24.4
2020-Aug-06 00:26 081 2 gusting 5 24.4
2020-Aug-06 00:21 092 4 gusting 6 24.4
2020-Aug-06 00:16 100 4 gusting 7 24.4
2020-Aug-06 00:11 102 4 gusting 6 23.9
2020-Aug-06 00:06 059 2 gusting 5 24.4
2020-Aug-06 00:01 092 4 gusting 5 24.4
2020-Aug-05 23:56 060 1 gusting 4 24.4
2020-Aug-05 23:51 088 2 gusting 4 24.4
2020-Aug-05 23:46 053 3 gusting 5 23.9
2020-Aug-05 23:41 018 0 gusting 0 23.9
2020-Aug-05 23:36 343 0 gusting 0 23.3
2020-Aug-05 23:31 062 23.3
2020-Aug-05 23:26 302 23.3
2020-Aug-05 23:21 355 23.9
2020-Aug-05 23:16 032 0 gusting 1 23.9
2020-Aug-05 23:11 296 0 gusting 0 23.9
2020-Aug-05 23:06 333 1 gusting 1 23.9
2020-Aug-05 23:01 045 1 gusting 1 23.9
2020-Aug-05 22:56 353 0 gusting 0 23.9
2020-Aug-05 22:51 284 0 gusting 1 23.9
2020-Aug-05 22:46 022 1 gusting 1 23.3
2020-Aug-05 22:41 23.3
2020-Aug-05 22:36 022 0 gusting 0 23.3
2020-Aug-05 22:31 234 23.9
2020-Aug-05 22:26 248 23.9
2020-Aug-05 22:21 270 0 gusting 0 23.9
2020-Aug-05 22:16 022 0 gusting 0 23.9
2020-Aug-05 22:11 315 1 gusting 1 23.9
2020-Aug-05 22:06 326 0 gusting 0 23.9
2020-Aug-05 22:01 257 23.9
2020-Aug-05 21:56 309 23.9
2020-Aug-05 21:51 233 23.9
2020-Aug-05 21:46 268 0 gusting 0 23.9
2020-Aug-05 21:41 270 0 gusting 0 23.9
2020-Aug-05 21:36 270 23.9
2020-Aug-05 21:31 234 0 gusting 1 23.9
2020-Aug-05 21:26 271 0 gusting 1 23.9
2020-Aug-05 21:21 311 1 gusting 1 23.9
2020-Aug-05 21:16 308 0 gusting 0 23.9
2020-Aug-05 21:11 338 0 gusting 0 23.9
2020-Aug-05 21:06 299 23.9
2020-Aug-05 21:01 270 23.9
2020-Aug-05 20:56 042 23.9
2020-Aug-05 20:51 001 23.9
2020-Aug-05 20:46 022 23.9
2020-Aug-05 20:41 280 23.9
2020-Aug-05 20:36 248 23.9
2020-Aug-05 20:31 216 23.9
2020-Aug-05 20:26 241 0 gusting 0 23.9
2020-Aug-05 20:21 225 0 gusting 0 23.9
2020-Aug-05 20:16 227 0 gusting 1 23.9
2020-Aug-05 20:11 248 1 gusting 1 23.9
2020-Aug-05 20:06 090 24.4
2020-Aug-05 20:01 141 24.4
2020-Aug-05 19:56 080 0 gusting 0 24.4
2020-Aug-05 19:51 270 1 gusting 1 24.4
2020-Aug-05 19:46 270 1 gusting 1 24.4
2020-Aug-05 19:41 339 24.4
2020-Aug-05 19:36 292 1 gusting 2 24.4
2020-Aug-05 19:31 270 2 gusting 2 24.4
2020-Aug-05 19:26 270 2 gusting 2 24.4
2020-Aug-05 19:21 273 0 gusting 1 23.9
2020-Aug-05 19:16 270 23.9
2020-Aug-05 19:11 278 1 gusting 1 23.9
2020-Aug-05 19:06 270 1 gusting 1 23.9
2020-Aug-05 19:01 270 0 gusting 0 23.9
2020-Aug-05 18:56 270 23.9
2020-Aug-05 18:51 311 1 gusting 1 23.9
2020-Aug-05 18:46 287 1 gusting 1 24.4
2020-Aug-05 18:41 126 24.4
2020-Aug-05 18:36 269 0 gusting 4 24.4
2020-Aug-05 18:31 218 0 gusting 1 24.4
2020-Aug-05 18:26 292 2 gusting 2 23.9
2020-Aug-05 18:21 269 1 gusting 1 24.4
2020-Aug-05 18:16 112 1 gusting 1 24.4
2020-Aug-05 18:11 277 1 gusting 1 24.4
2020-Aug-05 18:06 270 24.4
2020-Aug-05 18:01 270 25.0
2020-Aug-05 17:56 118 0 gusting 2 25.0
2020-Aug-05 17:51 109 0 gusting 1 25.0
2020-Aug-05 17:46 114 1 gusting 1 25.0
2020-Aug-05 17:41 101 0 gusting 1 25.6
2020-Aug-05 17:36 112 25.6
2020-Aug-05 17:31 136 25.6
2020-Aug-05 17:26 099 1 gusting 2 25.6
2020-Aug-05 17:21 124 1 gusting 2 26.1
2020-Aug-05 17:16 135 0 gusting 1 26.1
2020-Aug-05 17:11 127 2 gusting 2 26.1
2020-Aug-05 17:06 192 1 gusting 4 26.1
2020-Aug-05 17:01 190 2 gusting 4 26.1
2020-Aug-05 16:56 238 2 gusting 4 26.7
2020-Aug-05 16:51 171 3 gusting 4 26.7
2020-Aug-05 16:46 176 4 gusting 4 26.7
2020-Aug-05 16:41 175 1 gusting 4 27.2
2020-Aug-05 16:36 133 2 gusting 4 27.2
2020-Aug-05 16:31 158 2 gusting 4 27.2
2020-Aug-05 16:26 180 3 gusting 4 27.2
2020-Aug-05 16:21 148 2 gusting 4 27.8
2020-Aug-05 16:16 158 3 gusting 4 27.8
2020-Aug-05 16:11 135 3 gusting 5 27.8
2020-Aug-05 16:06 158 3 gusting 5 28.3
2020-Aug-05 16:01 122 4 gusting 5 28.3
2020-Aug-05 15:56 147 2 gusting 5 28.3
2020-Aug-05 15:51 136 4 gusting 5 28.3
2020-Aug-05 15:46 156 4 gusting 6 28.3
2020-Aug-05 15:41 135 5 gusting 6 28.3
2020-Aug-05 15:36 113 4 gusting 5 28.9
2020-Aug-05 15:31 112 6 gusting 7 28.9
2020-Aug-05 15:26 122 6 gusting 8 28.9
2020-Aug-05 15:21 147 7 gusting 8 28.9
2020-Aug-05 15:16 118 5 gusting 6 29.4
2020-Aug-05 15:11 131 6 gusting 8 29.4
2020-Aug-05 15:06 178 6 gusting 7 29.4
2020-Aug-05 15:01 135 6 gusting 8 28.9
2020-Aug-05 14:56 147 6 gusting 8 29.4
2020-Aug-05 14:51 149 6 gusting 10 29.4
2020-Aug-05 14:46 149 6 gusting 8 29.4
2020-Aug-05 14:41 139 7 gusting 11 29.4
2020-Aug-05 14:36 124 7 gusting 11 29.4
2020-Aug-05 14:31 093 6 gusting 8 30.0
2020-Aug-05 14:26 148 5 gusting 11 29.4
2020-Aug-05 14:21 155 6 gusting 11 29.4
2020-Aug-05 14:16 120 6 gusting 7 29.4
2020-Aug-05 14:11 140 5 gusting 8 29.4
2020-Aug-05 14:06 147 6 gusting 7 30.0
2020-Aug-05 14:01 133 5 gusting 8 29.4
2020-Aug-05 13:56 156 6 gusting 8 30.0
2020-Aug-05 13:51 138 6 gusting 8 30.0
2020-Aug-05 13:46 135 6 gusting 8 30.0
2020-Aug-05 13:41 137 6 gusting 8 30.0
2020-Aug-05 13:36 102 6 gusting 7 30.6
2020-Aug-05 13:31 122 7 gusting 10 30.6
2020-Aug-05 13:26 124 4 gusting 10 30.6
2020-Aug-05 13:21 116 8 gusting 12 30.6
2020-Aug-05 13:16 131 6 gusting 8 30.6
2020-Aug-05 13:11 126 5 gusting 11 31.1
2020-Aug-05 13:06 108 6 gusting 8 31.1
2020-Aug-05 13:01 081 3 gusting 7 31.7
2020-Aug-05 12:56 143 6 gusting 8 30.6
2020-Aug-05 12:51 135 6 gusting 7 30.6
2020-Aug-05 12:46 059 5 gusting 6 30.6
2020-Aug-05 12:41 112 8 gusting 11 30.6
2020-Aug-05 12:36 139 6 gusting 8 31.1
2020-Aug-05 12:31 124 9 gusting 12 31.1
2020-Aug-05 12:26 143 8 gusting 11 30.6
2020-Aug-05 12:21 135 10 gusting 12 30.6
2020-Aug-05 12:16 142 9 gusting 13 30.6
2020-Aug-05 12:11 112 7 gusting 12 31.1
2020-Aug-05 12:06 119 7 gusting 14 30.6
2020-Aug-05 12:01 140 11 gusting 14 30.6
2020-Aug-05 11:56 112 8 gusting 15 30.6
2020-Aug-05 11:51 123 11 gusting 14 30.6
2020-Aug-05 11:46 135 11 gusting 14 30.6
2020-Aug-05 11:41 132 8 gusting 13 31.7
2020-Aug-05 11:36 112 8 gusting 11 32.2
2020-Aug-05 11:31 138 7 gusting 11 32.2
2020-Aug-05 11:26 039 5 gusting 11 31.7
2020-Aug-05 11:21 123 7 gusting 11 32.2
2020-Aug-05 11:16 101 8 gusting 11 32.2
2020-Aug-05 11:11 139 8 gusting 12 31.7
2020-Aug-05 11:06 058 8 gusting 12 31.1
2020-Aug-05 11:01 112 10 gusting 14 31.7
2020-Aug-05 10:56 097 7 gusting 14 32.2
2020-Aug-05 10:51 106 8 gusting 12 31.7
2020-Aug-05 10:46 088 10 gusting 12 32.2
2020-Aug-05 10:41 106 10 gusting 13 33.3
2020-Aug-05 10:36 127 6 gusting 8 32.8
2020-Aug-05 10:31 132 8 gusting 13 31.7
2020-Aug-05 10:26 158 6 gusting 13 32.2
2020-Aug-05 10:21 180 4 gusting 6 32.8
2020-Aug-05 10:16 172 5 gusting 11 33.3
2020-Aug-05 10:11 276 8 gusting 11 33.3
2020-Aug-05 10:06 158 6 gusting 8 32.8
2020-Aug-05 10:01 119 4 gusting 6 32.2
2020-Aug-05 09:56 086 6 gusting 8 32.2
2020-Aug-05 09:51 146 9 gusting 11 31.7
2020-Aug-05 09:46 074 7 gusting 10 32.2
2020-Aug-05 09:41 096 8 gusting 11 32.2
2020-Aug-05 09:36 072 8 gusting 8 32.8
2020-Aug-05 09:31 102 6 gusting 10 32.2
2020-Aug-05 09:26 132 7 gusting 12 31.7
2020-Aug-05 09:21 134 8 gusting 13 31.7
2020-Aug-05 09:16 117 6 gusting 11 31.7
2020-Aug-05 09:11 106 8 gusting 11 31.7
2020-Aug-05 09:06 099 7 gusting 12 31.7
2020-Aug-05 09:01 115 6 gusting 8 32.2
2020-Aug-05 08:56 066 7 gusting 11 31.7
2020-Aug-05 08:51 081 9 gusting 12 31.7
2020-Aug-05 08:46 084 7 gusting 11 32.2
2020-Aug-05 08:41 096 5 gusting 8 31.7
2020-Aug-05 08:36 158 6 gusting 7 32.2
2020-Aug-05 08:31 055 2 gusting 4 31.1
2020-Aug-05 08:26 166 3 gusting 7 31.1
2020-Aug-05 08:21 137 5 gusting 6 31.1
2020-Aug-05 08:16 216 4 gusting 6 31.1
2020-Aug-05 08:11 158 3 gusting 5 31.1
2020-Aug-05 08:06 158 5 gusting 6 31.1
2020-Aug-05 08:01 200 2 gusting 6 31.7
2020-Aug-05 07:56 206 2 gusting 5 31.1
2020-Aug-05 07:51 120 3 gusting 6 32.2
2020-Aug-05 07:46 112 3 gusting 6 31.1
2020-Aug-05 07:41 274 4 gusting 5 31.7
2020-Aug-05 07:36 264 4 gusting 6 31.1
2020-Aug-05 07:31 227 2 gusting 4 30.6
2020-Aug-05 07:26 168 3 gusting 6 31.1
2020-Aug-05 07:21 229 4 gusting 6 31.7
2020-Aug-05 07:16 218 4 gusting 5 31.7
2020-Aug-05 07:11 139 2 gusting 4 30.0
2020-Aug-05 07:06 112 4 gusting 6 29.4
2020-Aug-05 07:01 102 3 gusting 6 30.0
2020-Aug-05 06:56 047 4 gusting 7 28.9
2020-Aug-05 06:51 042 2 gusting 6 29.4
2020-Aug-05 06:46 037 5 gusting 7 29.4
2020-Aug-05 06:41 076 5 gusting 6 29.4
2020-Aug-05 06:36 061 5 gusting 6 29.4
2020-Aug-05 06:31 090 6 gusting 7 28.9
2020-Aug-05 06:26 074 4 gusting 7 29.4
2020-Aug-05 06:21 098 5 gusting 8 28.9
2020-Aug-05 06:16 075 6 gusting 6 28.3
2020-Aug-05 06:11 071 6 gusting 8 28.3
2020-Aug-05 06:06 077 6 gusting 8 27.8
2020-Aug-05 06:01 112 8 gusting 11 27.8
2020-Aug-05 05:56 077 6 gusting 8 27.8
2020-Aug-05 05:51 081 6 gusting 8 27.8
2020-Aug-05 05:46 075 6 gusting 8 27.2
2020-Aug-05 05:41 107 6 gusting 10 27.2
2020-Aug-05 05:36 102 7 gusting 10 27.2
2020-Aug-05 05:31 110 6 gusting 8 27.2
2020-Aug-05 05:26 078 8 gusting 10 26.7
2020-Aug-05 05:21 071 6 gusting 8 26.7
2020-Aug-05 05:16 045 6 gusting 8 26.7
2020-Aug-05 05:11 080 6 gusting 8 26.7
2020-Aug-05 05:06 108 7 gusting 8 26.7
2020-Aug-05 05:01 060 5 gusting 6 26.7
2020-Aug-05 04:56 079 2 gusting 5 27.2
2020-Aug-05 04:51 102 4 gusting 5 26.7
2020-Aug-05 04:46 057 3 gusting 5 26.7
2020-Aug-05 04:41 082 1 gusting 5 26.7
2020-Aug-05 04:36 038 2 gusting 4 26.1
2020-Aug-05 04:31 049 5 gusting 6 26.1
2020-Aug-05 04:26 112 1 gusting 2 25.6
2020-Aug-05 04:21 270 1 gusting 1 25.6
2020-Aug-05 04:16 303 1 gusting 2 25.6
2020-Aug-05 04:11 082 1 gusting 2 25.0
2020-Aug-05 04:06 051 1 gusting 4 24.4
2020-Aug-05 04:01 277 5 gusting 6 24.4
2020-Aug-05 03:56 242 2 gusting 4 24.4
2020-Aug-05 03:51 283 1 gusting 2 24.4
2020-Aug-05 03:46 012 2 gusting 6 24.4
2020-Aug-05 03:41 063 2 gusting 4 24.4
2020-Aug-05 03:36 083 2 gusting 6 24.4
2020-Aug-05 03:31 066 4 gusting 6 24.4
2020-Aug-05 03:26 075 6 gusting 7 24.4
2020-Aug-05 03:21 045 6 gusting 7 24.4
2020-Aug-05 03:16 059 6 gusting 7 24.4
2020-Aug-05 03:11 072 5 gusting 8 24.4
2020-Aug-05 03:06 068 7 gusting 8 24.4
2020-Aug-05 03:01 079 7 gusting 10 24.4
2020-Aug-05 02:56 081 6 gusting 11 23.9
2020-Aug-05 02:51 101 2 gusting 4 23.9
2020-Aug-05 02:46 186 1 gusting 4 23.9
2020-Aug-05 02:41 300 2 gusting 4 23.9
2020-Aug-05 02:36 074 1 gusting 2 23.9
2020-Aug-05 02:31 177 1 gusting 2 24.4
2020-Aug-05 02:26 255 0 gusting 4 24.4
2020-Aug-05 02:21 286 1 gusting 4 23.9
2020-Aug-05 02:16 286 2 gusting 4 23.9
2020-Aug-05 02:11 270 2 gusting 4 23.3
2020-Aug-05 02:06 270 4 gusting 5 23.9
2020-Aug-05 02:01 268 2 gusting 4 23.9
2020-Aug-05 01:56 253 2 gusting 4 24.4
2020-Aug-05 01:51 277 1 gusting 4 25.0
2020-Aug-05 01:46 284 2 gusting 6 25.0
2020-Aug-05 01:41 089 4 gusting 8 25.0
2020-Aug-05 01:36 082 3 gusting 6 25.0
2020-Aug-05 01:31 086 4 gusting 6 25.0
2020-Aug-05 01:26 068 5 gusting 6 25.0
2020-Aug-05 01:21 106 2 gusting 5 24.4
2020-Aug-05 01:16 104 4 gusting 6 24.4
2020-Aug-05 01:11 108 4 gusting 6 24.4
2020-Aug-05 01:06 070 6 gusting 6 25.0
2020-Aug-05 01:01 045 4 gusting 6 24.4
2020-Aug-05 00:56 058 4 gusting 7 24.4
2020-Aug-05 00:51 095 5 gusting 7 24.4
2020-Aug-05 00:46 071 4 gusting 5 25.0
2020-Aug-05 00:41 096 4 gusting 6 25.0
2020-Aug-05 00:36 086 6 gusting 7 25.0
2020-Aug-05 00:31 120 3 gusting 5 24.4
2020-Aug-05 00:26 098 2 gusting 4 24.4
2020-Aug-05 00:21 270 1 gusting 1 23.9
2020-Aug-05 00:16 304 0 gusting 1 23.9
2020-Aug-05 00:11 258 1 gusting 1 23.9
2020-Aug-05 00:06 214 1 gusting 1 23.9
2020-Aug-05 00:01 264 1 gusting 2 23.9
2020-Aug-04 23:56 267 1 gusting 2 23.9
2020-Aug-04 23:51 240 1 gusting 1 23.3
2020-Aug-04 23:46 326 1 gusting 1 23.3
2020-Aug-04 23:41 154 23.9
2020-Aug-04 23:36 123 23.9
2020-Aug-04 23:31 035 0 gusting 1 23.9
2020-Aug-04 23:26 338 1 gusting 1 23.9
2020-Aug-04 23:21 338 0 gusting 1 23.9
2020-Aug-04 23:16 357 1 gusting 1 23.9
2020-Aug-04 23:11 277 1 gusting 1 23.3
2020-Aug-04 23:06 270 23.9
2020-Aug-04 23:01 142 0 gusting 1 23.9
2020-Aug-04 22:56 319 1 gusting 1 23.3
2020-Aug-04 22:51 326 1 gusting 1 23.3
2020-Aug-04 22:46 337 0 gusting 0 23.3
2020-Aug-04 22:41 23.3
2020-Aug-04 22:36 341 0 gusting 0 23.3
2020-Aug-04 22:31 326 1 gusting 1 23.3
2020-Aug-04 22:26 299 23.3
2020-Aug-04 22:21 270 0 gusting 0 23.3
2020-Aug-04 22:16 292 1 gusting 1 23.3
2020-Aug-04 22:11 065 1 gusting 1 23.3
2020-Aug-04 22:06 304 1 gusting 1 23.3
2020-Aug-04 22:01 281 23.3
2020-Aug-04 21:56 251 23.3
2020-Aug-04 21:51 267 23.3
2020-Aug-04 21:46 315 23.3
2020-Aug-04 21:41 310 0 gusting 1 23.3
2020-Aug-04 21:36 302 1 gusting 1 23.3
2020-Aug-04 21:31 325 0 gusting 1 23.3
2020-Aug-04 21:26 332 1 gusting 1 23.3
2020-Aug-04 21:21 292 1 gusting 1 23.3
2020-Aug-04 21:16 328 1 gusting 1 23.3
2020-Aug-04 21:11 306 1 gusting 1 23.3
2020-Aug-04 21:06 281 1 gusting 1 23.3
2020-Aug-04 21:01 270 1 gusting 1 23.3
2020-Aug-04 20:56 299 1 gusting 1 23.3
2020-Aug-04 20:51 334 1 gusting 1 23.3
2020-Aug-04 20:46 002 23.3
2020-Aug-04 20:41 270 23.3
2020-Aug-04 20:36 270 23.3
2020-Aug-04 20:31 216 23.9
2020-Aug-04 20:26 270 0 gusting 0 23.9
2020-Aug-04 20:21 270 1 gusting 2 23.9
2020-Aug-04 20:16 283 1 gusting 2 23.3
2020-Aug-04 20:11 285 2 gusting 2 23.3
2020-Aug-04 20:06 261 2 gusting 4 23.3
2020-Aug-04 20:01 262 1 gusting 2 23.3
2020-Aug-04 19:56 257 1 gusting 1 23.3
2020-Aug-04 19:51 260 0 gusting 1 23.3
2020-Aug-04 19:46 217 0 gusting 0 23.9
2020-Aug-04 19:41 270 23.9
2020-Aug-04 19:36 232 0 gusting 1 23.9
2020-Aug-04 19:31 236 0 gusting 0 24.4
2020-Aug-04 19:26 301 1 gusting 2 24.4
2020-Aug-04 19:21 270 1 gusting 1 24.4
2020-Aug-04 19:16 257 1 gusting 2 24.4
2020-Aug-04 19:11 270 1 gusting 1 24.4
2020-Aug-04 19:06 270 1 gusting 2 24.4
2020-Aug-04 19:01 270 2 gusting 2 24.4
2020-Aug-04 18:56 270 1 gusting 2 24.4
2020-Aug-04 18:51 275 1 gusting 2 24.4
2020-Aug-04 18:46 270 1 gusting 2 24.4
2020-Aug-04 18:41 284 2 gusting 2 24.4
2020-Aug-04 18:36 270 2 gusting 2 24.4
2020-Aug-04 18:31 292 2 gusting 2 24.4
2020-Aug-04 18:26 270 1 gusting 2 24.4
2020-Aug-04 18:21 270 2 gusting 2 25.0
2020-Aug-04 18:16 270 2 gusting 2 25.0
2020-Aug-04 18:11 270 1 gusting 2 25.0
2020-Aug-04 18:06 283 2 gusting 2 25.0
2020-Aug-04 18:01 270 2 gusting 4 25.0
2020-Aug-04 17:56 270 1 gusting 1 25.6
2020-Aug-04 17:51 270 2 gusting 2 25.6
2020-Aug-04 17:46 259 1 gusting 1 25.6
2020-Aug-04 17:41 258 2 gusting 2 25.6
2020-Aug-04 17:36 270 1 gusting 1 25.6
2020-Aug-04 17:31 283 1 gusting 1 25.6
2020-Aug-04 17:26 268 1 gusting 1 25.6
2020-Aug-04 17:21 248 1 gusting 1 26.1
2020-Aug-04 17:16 241 0 gusting 0 26.1
2020-Aug-04 17:11 267 1 gusting 1 26.1
2020-Aug-04 17:06 180 26.7
2020-Aug-04 17:01 248 26.7
2020-Aug-04 16:56 152 1 gusting 2 26.7
2020-Aug-04 16:51 158 1 gusting 1 26.7
2020-Aug-04 16:46 169 1 gusting 1 26.7
2020-Aug-04 16:41 191 2 gusting 4 26.7
2020-Aug-04 16:36 163 2 gusting 4 26.7
2020-Aug-04 16:31 173 1 gusting 2 27.2
2020-Aug-04 16:26 213 2 gusting 4 27.2
2020-Aug-04 16:21 133 4 gusting 5 27.2
2020-Aug-04 16:16 146 2 gusting 5 27.2
2020-Aug-04 16:11 112 4 gusting 5 27.2
2020-Aug-04 16:06 125 5 gusting 6 27.8
2020-Aug-04 16:01 113 4 gusting 5 27.8
2020-Aug-04 15:56 143 4 gusting 6 27.8
2020-Aug-04 15:51 127 4 gusting 6 28.3
2020-Aug-04 15:46 119 5 gusting 6 28.3
2020-Aug-04 15:41 131 5 gusting 7 28.3
2020-Aug-04 15:36 125 4 gusting 6 28.9
2020-Aug-04 15:31 146 5 gusting 6 28.3
2020-Aug-04 15:26 133 6 gusting 7 28.3
2020-Aug-04 15:21 124 6 gusting 7 28.3
2020-Aug-04 15:16 135 6 gusting 8 28.9
2020-Aug-04 15:11 133 6 gusting 8 28.9
2020-Aug-04 15:06 136 6 gusting 8 28.9
2020-Aug-04 15:01 073 6 gusting 7 28.9
2020-Aug-04 14:56 124 5 gusting 8 29.4
2020-Aug-04 14:51 135 6 gusting 8 29.4
2020-Aug-04 14:46 158 7 gusting 8 29.4
2020-Aug-04 14:41 135 6 gusting 8 29.4
2020-Aug-04 14:36 136 6 gusting 8 28.9
2020-Aug-04 14:31 112 6 gusting 8 28.9
2020-Aug-04 14:26 124 6 gusting 10 28.9
2020-Aug-04 14:21 117 7 gusting 8 28.9
2020-Aug-04 14:16 169 7 gusting 8 29.4
2020-Aug-04 14:11 147 7 gusting 8 28.9
2020-Aug-04 14:06 112 6 gusting 10 29.4
2020-Aug-04 14:01 135 7 gusting 8 29.4
2020-Aug-04 13:56 135 5 gusting 12 29.4
2020-Aug-04 13:51 146 7 gusting 8 29.4
2020-Aug-04 13:46 123 6 gusting 8 29.4
2020-Aug-04 13:41 112 7 gusting 8 29.4
2020-Aug-04 13:36 154 6 gusting 8 30.0
2020-Aug-04 13:31 136 6 gusting 8 29.4
2020-Aug-04 13:26 129 8 gusting 11 29.4
2020-Aug-04 13:21 125 8 gusting 10 30.0
2020-Aug-04 13:16 133 6 gusting 8 30.0
2020-Aug-04 13:11 112 5 gusting 7 30.0
2020-Aug-04 13:06 088 6 gusting 7 30.0
2020-Aug-04 13:01 163 6 gusting 8 30.0
2020-Aug-04 12:56 138 5 gusting 8 30.0
2020-Aug-04 12:51 119 6 gusting 7 30.0
2020-Aug-04 12:46 112 8 gusting 10 30.0
2020-Aug-04 12:41 146 6 gusting 7 30.0
2020-Aug-04 12:36 121 5 gusting 8 30.0
2020-Aug-04 12:26 113 6 gusting 11 30.0
2020-Aug-04 12:21 147 6 gusting 8 30.6
2020-Aug-04 12:16 186 6 gusting 10 30.0
2020-Aug-04 12:11 112 7 gusting 10 30.0
2020-Aug-04 12:06 139 7 gusting 12 30.6
2020-Aug-04 12:01 100 6 gusting 12 30.0
2020-Aug-04 11:51 124 8 gusting 8 30.0
2020-Aug-04 11:46 125 6 gusting 8 30.0
2020-Aug-04 11:41 227 7 gusting 8 29.4
2020-Aug-04 11:36 156 10 gusting 13 30.0
2020-Aug-04 11:31 110 7 gusting 10 30.0
2020-Aug-04 11:26 146 7 gusting 11 30.0
2020-Aug-04 11:21 126 9 gusting 12 30.0
2020-Aug-04 11:16 119 6 gusting 10 30.6
2020-Aug-04 11:11 148 8 gusting 11 30.0
2020-Aug-04 11:06 121 8 gusting 10 30.0
2020-Aug-04 11:01 131 9 gusting 11 30.0
2020-Aug-04 10:56 112 7 gusting 8 30.0
2020-Aug-04 10:51 114 6 gusting 10 30.0
2020-Aug-04 10:46 114 7 gusting 12 30.0
2020-Aug-04 10:41 123 8 gusting 11 29.4
2020-Aug-04 10:36 147 8 gusting 10 29.4
2020-Aug-04 10:31 158 6 gusting 7 29.4
2020-Aug-04 10:26 138 7 gusting 11 30.0
2020-Aug-04 10:21 118 8 gusting 8 30.0
2020-Aug-04 10:16 117 7 gusting 10 29.4
2020-Aug-04 10:11 124 8 gusting 10 30.0
2020-Aug-04 10:06 123 8 gusting 11 30.0
2020-Aug-04 10:01 083 8 gusting 11 30.0
2020-Aug-04 09:56 100 8 gusting 11 29.4
2020-Aug-04 09:51 112 8 gusting 11 28.9
2020-Aug-04 09:46 124 8 gusting 13 28.9
2020-Aug-04 09:41 118 7 gusting 12 28.9
2020-Aug-04 09:36 122 10 gusting 13 28.9
2020-Aug-04 09:31 146 10 gusting 13 28.9
2020-Aug-04 09:26 145 6 gusting 12 28.9
2020-Aug-04 09:21 162 10 gusting 13 28.9
2020-Aug-04 09:16 146 9 gusting 11 29.4
2020-Aug-04 09:11 151 7 gusting 12 29.4
2020-Aug-04 09:06 155 9 gusting 11 28.9
2020-Aug-04 09:01 147 8 gusting 12 28.9
2020-Aug-04 08:56 146 5 gusting 7 29.4
2020-Aug-04 08:51 158 6 gusting 10 28.9
2020-Aug-04 08:46 124 5 gusting 10 28.9
2020-Aug-04 08:41 179 6 gusting 8 29.4
2020-Aug-04 08:36 245 7 gusting 10 29.4
2020-Aug-04 08:31 222 5 gusting 8 31.1
2020-Aug-04 08:26 182 3 gusting 8 30.0
2020-Aug-04 08:21 158 7 gusting 8 30.0
2020-Aug-04 08:16 023 4 gusting 8 30.0
2020-Aug-04 08:11 129 5 gusting 7 30.0
2020-Aug-04 08:06 158 6 gusting 7 29.4
2020-Aug-04 08:01 143 6 gusting 8 30.0
2020-Aug-04 07:56 131 6 gusting 6 30.0
2020-Aug-04 07:51 304 4 gusting 8 30.0
2020-Aug-04 07:46 140 5 gusting 7 28.9
2020-Aug-04 07:41 137 6 gusting 7 29.4
2020-Aug-04 07:36 129 5 gusting 8 30.0
2020-Aug-04 07:31 238 3 gusting 6 31.1
2020-Aug-04 07:26 177 4 gusting 5 31.1
2020-Aug-04 07:21 180 3 gusting 6 30.0
2020-Aug-04 07:16 174 2 gusting 4 30.0
2020-Aug-04 07:11 170 4 gusting 5 28.9
2020-Aug-04 07:06 132 2 gusting 4 29.4
2020-Aug-04 07:01 138 3 gusting 6 28.9